Time;durP1;ratioP1;P1;durP2;ratioP2;P2;SDS_P1;SDS_P2;PMS_P1;PMS_P2;Temp;Humidity;BMP_temperature;BMP_pressure;BME280_temperature;BME280_humidity;BME280_pressure;Samples;Min_cycle;Max_cycle;Signal;HPM_P1;HPM_P2
2022/05/12 00:01:32;;;;;;;4.63;2.70;;;15.00;99.90;;;;;;4967360;28;20235;-62
2022/05/12 00:03:59;;;;;;;5.97;2.88;;;14.90;99.90;;;;;;5002545;28;20195;-61
2022/05/12 00:06:26;;;;;;;5.10;2.38;;;14.90;99.90;;;;;;4967757;28;20211;-62
2022/05/12 00:08:53;;;;;;;4.22;2.60;;;14.90;99.90;;;;;;4991042;28;20245;-62
2022/05/12 00:11:21;;;;;;;3.55;2.72;;;14.90;99.90;;;;;;4973845;28;20859;-62
2022/05/12 00:13:48;;;;;;;4.50;2.55;;;14.80;99.90;;;;;;4976677;28;20221;-62
2022/05/12 00:16:16;;;;;;;6.70;2.75;;;14.70;99.90;;;;;;4991040;28;20733;-61
2022/05/12 00:18:42;;;;;;;3.58;2.67;;;14.70;99.90;;;;;;4966774;28;20278;-62
2022/05/12 00:21:09;;;;;;;3.15;2.60;;;14.60;99.90;;;;;;4975302;28;20230;-61
2022/05/12 00:23:36;;;;;;;4.85;2.80;;;14.60;99.90;;;;;;4990743;28;20199;-62
2022/05/12 00:26:04;;;;;;;4.90;2.80;;;14.60;99.90;;;;;;4967914;28;20688;-61
2022/05/12 00:28:32;;;;;;;4.00;2.30;;;14.50;99.90;;;;;;4980277;28;20210;-62
2022/05/12 00:31:00;;;;;;;3.70;2.35;;;14.50;99.90;;;;;;4979820;28;20575;-62
2022/05/12 00:33:28;;;;;;;5.70;2.35;;;14.40;99.90;;;;;;4977834;28;20446;-62
2022/05/12 00:35:57;;;;;;;3.30;1.85;;;14.30;99.90;;;;;;4979219;28;20677;-62
2022/05/12 00:38:24;;;;;;;6.78;2.67;;;14.20;99.90;;;;;;4982069;28;20954;-62
2022/05/12 00:40:51;;;;;;;7.80;2.20;;;14.20;99.90;;;;;;4977505;28;20227;-62
2022/05/12 00:43:43;;;;;;;4.78;2.10;;;14.10;99.90;;;;;;4976543;28;20261;-62
2022/05/12 00:46:13;;;;;;;7.68;2.45;;;14.00;99.90;;;;;;4975091;28;20229;-62
2022/05/12 00:48:40;;;;;;;9.32;2.72;;;14.00;99.90;;;;;;4971343;28;20203;-61
2022/05/12 00:51:10;;;;;;;6.05;2.15;;;13.90;99.90;;;;;;4970208;28;20285;-62
2022/05/12 00:53:38;;;;;;;5.22;2.30;;;13.90;99.90;;;;;;4989923;28;20218;-62
2022/05/12 00:56:08;;;;;;;3.25;2.08;;;13.90;99.90;;;;;;4982762;28;21030;-62
2022/05/12 00:58:37;;;;;;;4.22;2.30;;;13.90;99.90;;;;;;4979869;28;20207;-62
2022/05/12 01:01:08;;;;;;;6.55;2.72;;;13.80;99.90;;;;;;4987533;28;20227;-62
2022/05/12 01:03:34;;;;;;;5.43;2.42;;;13.80;99.90;;;;;;4983378;28;20210;-62
2022/05/12 01:06:03;;;;;;;10.70;3.22;;;13.80;99.90;;;;;;4980585;28;20209;-61
2022/05/12 01:08:30;;;;;;;7.25;2.80;;;13.70;99.90;;;;;;4956797;28;20872;-61
2022/05/12 01:11:04;;;;;;;7.90;2.92;;;13.70;99.90;;;;;;4978422;28;20206;-61
2022/05/12 01:13:32;;;;;;;7.65;3.00;;;13.60;99.90;;;;;;4973057;28;23013;-62
2022/05/12 01:16:02;;;;;;;7.43;3.05;;;13.50;99.90;;;;;;4990318;28;20206;-61
2022/05/12 01:18:31;;;;;;;7.95;3.22;;;13.40;99.90;;;;;;4992016;28;20198;-61
2022/05/12 01:20:59;;;;;;;7.25;2.03;;;13.30;99.90;;;;;;4991930;28;20240;-61
2022/05/12 01:23:30;;;;;;;4.25;1.80;;;13.10;99.90;;;;;;4970299;28;20333;-61
2022/05/12 01:25:59;;;;;;;2.25;1.52;;;12.90;99.90;;;;;;4990523;28;20290;-61
2022/05/12 01:28:27;;;;;;;3.53;1.48;;;12.70;99.90;;;;;;4971266;28;20207;-61
2022/05/12 01:30:54;;;;;;;4.10;1.48;;;12.50;99.90;;;;;;4982209;28;20226;-61
2022/05/12 01:33:21;;;;;;;3.22;1.45;;;12.40;99.90;;;;;;4989198;28;20210;-61
2022/05/12 01:35:49;;;;;;;4.03;1.52;;;12.30;99.90;;;;;;4984858;28;20203;-61
2022/05/12 01:38:16;;;;;;;2.80;1.20;;;12.30;99.90;;;;;;4971383;28;20207;-61
2022/05/12 01:40:45;;;;;;;2.28;1.20;;;12.20;99.90;;;;;;4988649;28;20237;-61
2022/05/12 01:43:13;;;;;;;1.38;1.20;;;12.10;99.90;;;;;;4981928;28;20209;-61
2022/05/12 01:45:41;;;;;;;4.40;1.33;;;12.10;99.90;;;;;;4961293;28;20672;-61
2022/05/12 01:48:11;;;;;;;1.90;1.10;;;12.00;99.90;;;;;;4988567;28;20224;-61
2022/05/12 01:50:40;;;;;;;5.03;1.50;;;12.00;99.90;;;;;;4973071;28;20698;-61
2022/05/12 01:53:09;;;;;;;3.60;1.58;;;11.90;99.90;;;;;;4965366;28;20276;-61
2022/05/12 01:55:36;;;;;;;5.55;1.50;;;11.90;99.90;;;;;;4990142;28;20623;-61
2022/05/12 01:58:05;;;;;;;1.30;1.20;;;11.90;99.90;;;;;;4979695;28;20206;-61
2022/05/12 02:00:33;;;;;;;5.97;1.67;;;11.90;99.90;;;;;;4976137;28;20236;-61
2022/05/12 02:03:01;;;;;;;5.93;1.57;;;11.80;99.90;;;;;;4988823;28;20222;-61
2022/05/12 02:05:28;;;;;;;3.72;1.30;;;11.80;99.90;;;;;;4976241;28;20573;-61
2022/05/12 02:07:55;;;;;;;4.78;1.60;;;11.80;99.90;;;;;;4964882;28;20984;-61
2022/05/12 02:10:24;;;;;;;3.47;1.30;;;11.80;99.90;;;;;;4978353;28;20580;-62
2022/05/12 02:12:51;;;;;;;5.40;1.10;;;11.70;99.90;;;;;;4984404;28;20202;-61
2022/05/12 02:15:19;;;;;;;1.57;1.27;;;11.70;99.90;;;;;;4976171;28;20205;-61
2022/05/12 02:17:46;;;;;;;2.37;1.10;;;11.70;99.90;;;;;;4969634;28;20226;-61
2022/05/12 02:20:14;;;;;;;3.63;1.55;;;11.70;99.90;;;;;;4980589;28;20268;-61
2022/05/12 02:22:43;;;;;;;5.57;0.90;;;11.60;99.90;;;;;;4957834;28;20203;-62
2022/05/12 02:25:11;;;;;;;3.90;1.20;;;11.60;99.90;;;;;;4985998;28;20204;-63
2022/05/12 02:27:42;;;;;;;4.10;1.00;;;11.50;99.90;;;;;;4975569;28;20207;-62
2022/05/12 02:30:11;;;;;;;4.95;1.08;;;11.50;99.90;;;;;;4973089;28;20620;-61
2022/05/12 02:32:40;;;;;;;1.17;1.07;;;11.50;99.90;;;;;;4987617;28;20678;-61
2022/05/12 02:35:08;;;;;;;3.27;1.30;;;11.50;99.90;;;;;;4982074;28;20210;-61
2022/05/12 02:37:35;;;;;;;1.03;0.77;;;11.50;99.90;;;;;;4975300;28;20198;-62
2022/05/12 02:40:02;;;;;;;4.32;1.30;;;11.40;99.90;;;;;;4977730;28;20247;-61
2022/05/12 02:42:29;;;;;;;4.07;1.37;;;11.40;99.90;;;;;;4996344;28;20232;-61
2022/05/12 02:44:56;;;;;;;2.28;0.90;;;11.40;99.90;;;;;;4977885;28;21008;-61
2022/05/12 02:47:23;;;;;;;2.45;1.20;;;11.40;99.90;;;;;;4993534;28;20294;-61
2022/05/12 02:49:51;;;;;;;1.75;1.17;;;11.40;99.90;;;;;;4983683;28;20206;-62
2022/05/12 02:52:18;;;;;;;1.65;1.10;;;11.30;99.90;;;;;;4982404;28;20215;-61
2022/05/12 02:54:45;;;;;;;1.50;0.97;;;11.40;99.90;;;;;;4965596;28;20309;-61
2022/05/12 02:57:12;;;;;;;3.50;1.08;;;11.30;99.90;;;;;;4982893;28;23672;-61
2022/05/12 02:59:39;;;;;;;4.95;1.25;;;11.30;99.90;;;;;;4979841;28;20214;-61
2022/05/12 03:02:07;;;;;;;2.85;1.08;;;11.30;99.90;;;;;;4970320;28;20345;-61
2022/05/12 03:04:34;;;;;;;5.47;1.58;;;11.30;99.90;;;;;;4978328;28;20202;-64
2022/05/12 03:07:03;;;;;;;2.75;1.08;;;11.30;99.90;;;;;;4978970;28;20214;-61
2022/05/12 03:09:30;;;;;;;5.83;1.17;;;11.30;99.90;;;;;;4968645;28;20206;-61
2022/05/12 03:11:57;;;;;;;3.00;1.25;;;11.20;99.90;;;;;;4983992;28;20203;-61
2022/05/12 03:14:24;;;;;;;2.72;1.05;;;11.20;99.90;;;;;;4976921;28;20876;-61
2022/05/12 03:16:53;;;;;;;3.80;1.50;;;11.30;99.90;;;;;;4963809;28;20226;-61
2022/05/12 03:19:20;;;;;;;5.88;1.48;;;11.30;99.90;;;;;;4977266;28;20288;-61
2022/05/12 03:21:48;;;;;;;3.13;1.42;;;11.20;99.90;;;;;;4984206;28;20228;-61
2022/05/12 03:24:17;;;;;;;3.27;1.70;;;11.30;99.90;;;;;;4962625;28;20904;-62
2022/05/12 03:26:44;;;;;;;2.63;1.48;;;11.30;99.90;;;;;;4980118;28;20202;-61
2022/05/12 03:29:11;;;;;;;4.15;1.30;;;11.30;99.90;;;;;;4983061;28;20217;-61
2022/05/12 03:31:38;;;;;;;4.40;1.95;;;11.20;99.90;;;;;;4964837;28;20203;-61
2022/05/12 03:34:06;;;;;;;2.78;1.30;;;11.30;99.90;;;;;;4987122;28;23104;-61
2022/05/12 03:36:35;;;;;;;5.07;1.80;;;11.30;99.90;;;;;;4986068;28;20210;-61
2022/05/12 03:39:03;;;;;;;3.60;1.42;;;11.30;99.90;;;;;;4977077;28;20775;-61
2022/05/12 03:41:32;;;;;;;3.75;1.70;;;11.30;99.90;;;;;;4990354;28;20230;-62
2022/05/12 03:46:43;;;;;;;3.10;1.80;;;11.20;99.90;;;;;;4976393;28;20215;-61
2022/05/12 03:49:10;;;;;;;3.42;1.55;;;11.30;99.90;;;;;;4962628;28;21396;-62
2022/05/12 03:51:38;;;;;;;4.82;2.00;;;11.30;99.90;;;;;;4988975;28;20231;-61
2022/05/12 03:54:05;;;;;;;3.05;1.75;;;11.30;99.90;;;;;;4955132;28;20247;-61
2022/05/12 03:56:35;;;;;;;3.55;1.95;;;11.20;99.90;;;;;;4975092;28;20802;-61
2022/05/12 03:59:05;;;;;;;10.32;2.13;;;11.20;99.90;;;;;;4983276;28;20219;-61
2022/05/12 04:01:38;;;;;;;5.50;2.08;;;11.20;99.90;;;;;;4993081;28;20230;-60
2022/05/12 04:04:06;;;;;;;4.27;2.30;;;11.20;99.90;;;;;;4969029;28;20663;-61
2022/05/12 04:06:33;;;;;;;6.43;2.30;;;11.20;99.90;;;;;;4990047;28;20877;-61
2022/05/12 04:09:00;;;;;;;8.13;2.22;;;11.20;99.90;;;;;;4964673;28;20219;-62
2022/05/12 04:11:27;;;;;;;3.60;2.00;;;11.20;99.90;;;;;;4978859;28;20233;-61
2022/05/12 04:13:58;;;;;;;2.53;1.83;;;11.10;99.90;;;;;;4972398;28;20223;-61
2022/05/12 04:16:25;;;;;;;6.05;2.38;;;11.20;99.90;;;;;;4978838;28;20211;-63
2022/05/12 04:18:51;;;;;;;5.35;1.80;;;11.20;99.90;;;;;;4984962;28;20318;-61
2022/05/12 04:21:18;;;;;;;4.57;1.85;;;11.20;99.90;;;;;;4979285;28;20600;-61
2022/05/12 04:23:45;;;;;;;9.05;2.38;;;11.20;99.90;;;;;;4981575;28;20206;-61
2022/05/12 04:26:12;;;;;;;4.25;2.28;;;11.20;99.90;;;;;;4960724;28;20214;-61
2022/05/12 04:28:39;;;;;;;5.20;2.67;;;11.20;99.90;;;;;;4991216;28;20213;-61
2022/05/12 04:31:07;;;;;;;3.03;2.35;;;11.20;99.90;;;;;;4986822;28;20210;-61
2022/05/12 04:36:19;;;;;;;7.05;2.50;;;11.30;99.90;;;;;;4960890;28;20206;-61
2022/05/12 04:38:46;;;;;;;3.45;2.00;;;11.30;99.90;;;;;;4970886;28;20229;-61
2022/05/12 04:41:15;;;;;;;4.45;2.22;;;11.30;99.90;;;;;;4960294;28;20227;-61
2022/05/12 04:43:43;;;;;;;3.72;1.98;;;11.30;99.90;;;;;;4995613;28;20294;-61
2022/05/12 04:46:13;;;;;;;4.70;2.53;;;11.40;99.90;;;;;;4992485;28;20198;-61
2022/05/12 04:48:40;;;;;;;5.30;2.65;;;11.40;99.90;;;;;;4971115;28;20214;-61
2022/05/12 04:51:08;;;;;;;2.03;1.92;;;11.30;99.90;;;;;;4968572;28;20260;-62
2022/05/12 04:53:35;;;;;;;2.90;1.80;;;11.30;99.90;;;;;;4979210;28;20199;-62
2022/05/12 04:56:02;;;;;;;3.38;1.90;;;11.30;99.90;;;;;;4969154;28;20235;-62
2022/05/12 04:58:29;;;;;;;5.93;2.00;;;11.40;99.90;;;;;;4984035;28;20213;-62
2022/05/12 05:00:56;;;;;;;5.03;2.05;;;11.40;99.90;;;;;;4974393;28;20230;-62
2022/05/12 05:03:25;;;;;;;6.82;2.30;;;11.40;99.90;;;;;;4978332;28;20248;-61
2022/05/12 05:05:52;;;;;;;4.75;2.33;;;11.50;99.90;;;;;;4964060;28;20758;-61
2022/05/12 05:08:22;;;;;;;4.35;2.03;;;11.50;99.90;;;;;;4989389;28;20199;-62
2022/05/12 05:10:51;;;;;;;6.25;1.92;;;11.50;99.90;;;;;;4965029;28;20660;-62
2022/05/12 05:13:19;;;;;;;2.72;1.45;;;11.50;99.90;;;;;;4979953;28;20705;-61
2022/05/12 05:15:47;;;;;;;4.70;1.67;;;11.50;99.90;;;;;;4984656;28;20204;-60
2022/05/12 05:18:16;;;;;;;3.10;1.65;;;11.50;99.90;;;;;;4968569;28;20334;-61
2022/05/12 05:20:46;;;;;;;3.85;1.92;;;11.50;99.90;;;;;;4961107;28;20372;-62
2022/05/12 05:23:15;;;;;;;3.88;1.80;;;11.50;99.90;;;;;;4969544;28;20239;-61
2022/05/12 05:25:42;;;;;;;5.38;1.98;;;11.60;99.90;;;;;;4955884;28;20243;-61
2022/05/12 05:28:10;;;;;;;5.28;1.75;;;11.70;99.90;;;;;;4987878;28;20998;-61
2022/05/12 05:30:37;;;;;;;6.15;2.20;;;11.70;99.90;;;;;;4985182;28;20226;-61
2022/05/12 05:33:06;;;;;;;9.32;2.20;;;11.70;99.90;;;;;;4988248;28;20657;-61
2022/05/12 05:35:34;;;;;;;3.15;1.65;;;11.80;99.90;;;;;;4991144;28;20199;-61
2022/05/12 05:38:02;;;;;;;2.17;1.95;;;11.80;99.90;;;;;;4978571;28;20221;-61
2022/05/12 05:40:29;;;;;;;2.80;2.03;;;12.10;99.90;;;;;;4988511;28;20199;-61
2022/05/12 05:42:57;;;;;;;6.18;1.88;;;12.10;99.90;;;;;;4966739;28;20223;-62
2022/05/12 05:45:26;;;;;;;4.55;1.60;;;12.10;99.90;;;;;;4982772;28;20203;-61
2022/05/12 05:47:56;;;;;;;3.15;1.80;;;12.10;99.90;;;;;;4989815;28;20233;-61
2022/05/12 05:50:25;;;;;;;5.13;1.90;;;12.10;99.90;;;;;;4994082;28;20199;-61
2022/05/12 05:55:37;;;;;;;4.63;1.88;;;12.20;99.90;;;;;;4976211;28;20250;-62
2022/05/12 05:58:06;;;;;;;6.95;2.33;;;12.20;99.90;;;;;;4969674;28;20211;-62
2022/05/12 06:00:34;;;;;;;4.88;2.00;;;12.30;99.90;;;;;;4977702;28;20199;-61
2022/05/12 06:03:02;;;;;;;6.28;2.30;;;12.30;99.90;;;;;;4989906;28;20653;-61
2022/05/12 06:05:29;;;;;;;4.30;2.38;;;12.30;99.90;;;;;;4990990;28;20206;-62
2022/05/12 06:07:57;;;;;;;4.68;2.13;;;12.40;99.90;;;;;;4983794;28;20334;-61
2022/05/12 06:10:24;;;;;;;4.13;1.70;;;12.40;99.90;;;;;;4978997;28;20205;-62
2022/05/12 06:12:53;;;;;;;7.53;2.45;;;12.40;99.90;;;;;;4961409;28;20309;-62
2022/05/12 06:15:20;;;;;;;7.22;2.17;;;12.50;99.90;;;;;;4979889;28;20241;-61
2022/05/12 06:17:47;;;;;;;11.30;2.55;;;12.50;99.90;;;;;;4984632;28;20225;-61
2022/05/12 06:20:13;;;;;;;4.70;2.03;;;12.60;99.90;;;;;;4986231;28;20215;-63
2022/05/12 06:22:40;;;;;;;2.38;1.65;;;12.60;99.90;;;;;;4978669;28;21048;-61
2022/05/12 06:25:10;;;;;;;7.07;2.10;;;12.60;99.90;;;;;;4977097;28;20801;-62
2022/05/12 06:27:38;;;;;;;7.72;2.05;;;12.70;99.90;;;;;;4988270;28;20714;-62
2022/05/12 06:30:11;;;;;;;5.10;1.98;;;12.80;99.90;;;;;;4970215;28;20231;-62
2022/05/12 06:32:39;;;;;;;10.95;2.75;;;12.90;99.90;;;;;;4986543;28;20202;-63
2022/05/12 06:35:07;;;;;;;6.97;2.03;;;12.90;99.90;;;;;;4993698;28;20211;-62
2022/05/12 06:37:35;;;;;;;5.05;2.00;;;13.00;99.90;;;;;;4984760;28;20227;-62
2022/05/12 06:40:02;;;;;;;5.18;2.00;;;13.00;99.90;;;;;;4985832;28;20207;-62
2022/05/12 06:42:29;;;;;;;6.55;2.70;;;13.00;99.90;;;;;;4982989;28;20237;-62
2022/05/12 06:44:55;;;;;;;4.75;2.38;;;13.00;99.90;;;;;;4971896;28;20262;-62
2022/05/12 06:47:24;;;;;;;5.72;2.30;;;13.10;99.90;;;;;;4980729;28;20203;-61
2022/05/12 06:49:52;;;;;;;5.30;1.88;;;13.10;99.90;;;;;;4991593;28;20198;-62
2022/05/12 06:52:19;;;;;;;3.92;2.15;;;13.10;99.90;;;;;;4973332;28;20304;-62
2022/05/12 06:54:47;;;;;;;6.43;1.88;;;13.20;99.90;;;;;;4994843;28;20859;-61
2022/05/12 06:57:21;;;;;;;6.85;1.55;;;13.20;99.90;;;;;;4973704;28;20231;-62
2022/05/12 06:59:49;;;;;;;7.18;2.28;;;13.30;99.90;;;;;;4980414;28;20594;-62
2022/05/12 07:02:16;;;;;;;3.72;1.80;;;13.40;99.90;;;;;;4976189;28;20718;-62
2022/05/12 07:04:46;;;;;;;7.15;2.22;;;13.40;99.90;;;;;;4990626;28;20203;-62
2022/05/12 07:07:13;;;;;;;4.22;1.90;;;13.40;99.90;;;;;;4991582;28;20198;-62
2022/05/12 07:09:40;;;;;;;5.05;2.05;;;13.70;99.90;;;;;;4984210;28;20222;-62
2022/05/12 07:12:08;;;;;;;3.35;1.80;;;13.60;99.90;;;;;;4974336;28;20218;-62
2022/05/12 07:14:35;;;;;;;2.72;1.60;;;13.60;99.90;;;;;;4976984;28;22040;-62
2022/05/12 07:17:03;;;;;;;6.38;2.05;;;13.90;99.90;;;;;;4973374;28;20211;-61
2022/05/12 07:19:32;;;;;;;6.32;1.90;;;14.00;99.90;;;;;;4994120;28;20202;-62
2022/05/12 07:27:38;;;;;;;5.35;2.00;;;13.90;99.90;;;;;;4980066;28;20881;-62
2022/05/12 07:30:06;;;;;;;2.38;1.45;;;13.90;99.90;;;;;;4971632;28;20213;-62
2022/05/12 07:32:33;;;;;;;6.53;1.80;;;13.90;99.90;;;;;;4987888;28;20217;-62
2022/05/12 07:35:00;;;;;;;4.38;1.70;;;14.00;99.90;;;;;;4987403;28;20214;-62
2022/05/12 07:37:29;;;;;;;4.63;2.53;;;14.30;99.90;;;;;;4988221;28;20665;-62
2022/05/12 07:39:56;;;;;;;5.00;2.20;;;14.60;99.90;;;;;;4971707;28;20352;-61
2022/05/12 07:42:23;;;;;;;8.07;2.20;;;14.60;99.90;;;;;;4982735;28;20230;-63
2022/05/12 07:44:50;;;;;;;4.18;2.40;;;14.70;99.90;;;;;;4975701;28;20923;-62
2022/05/12 07:47:19;;;;;;;5.15;1.80;;;14.90;99.90;;;;;;4970289;28;20321;-62
2022/05/12 07:49:47;;;;;;;8.95;2.30;;;15.00;99.90;;;;;;4983070;28;20210;-63
2022/05/12 07:52:15;;;;;;;8.68;2.20;;;15.00;99.90;;;;;;4989174;28;20198;-62
2022/05/12 07:54:43;;;;;;;5.47;2.10;;;15.00;99.90;;;;;;4990618;28;20707;-61
2022/05/12 07:57:10;;;;;;;7.13;2.35;;;15.10;99.90;;;;;;4990866;28;20210;-62
2022/05/12 07:59:37;;;;;;;5.03;1.83;;;15.20;99.90;;;;;;4976734;28;20225;-62
2022/05/12 08:02:05;;;;;;;6.43;2.03;;;15.20;99.90;;;;;;4969564;28;20207;-62
2022/05/12 08:04:34;;;;;;;6.95;2.13;;;15.10;99.90;;;;;;4972071;28;20298;-63
2022/05/12 08:07:01;;;;;;;5.47;2.08;;;15.00;99.90;;;;;;4989592;28;20521;-63
2022/05/12 08:09:28;;;;;;;7.28;2.53;;;15.00;99.90;;;;;;4989507;28;20800;-62
2022/05/12 08:11:56;;;;;;;8.82;2.22;;;14.90;99.90;;;;;;4992908;28;20207;-62
2022/05/12 08:14:23;;;;;;;3.63;2.22;;;15.20;99.90;;;;;;4962404;28;21242;-62
2022/05/12 08:16:50;;;;;;;5.80;2.40;;;15.20;99.90;;;;;;4975845;28;20213;-62
2022/05/12 08:19:17;;;;;;;11.20;2.30;;;15.30;99.90;;;;;;4978144;28;20238;-62
2022/05/12 08:21:44;;;;;;;4.40;1.98;;;15.40;99.90;;;;;;4996627;28;20207;-61
2022/05/12 08:24:11;;;;;;;7.75;2.03;;;15.50;99.90;;;;;;4986158;28;20293;-62
2022/05/12 08:26:38;;;;;;;5.30;2.38;;;15.50;99.90;;;;;;4986281;28;20215;-62
2022/05/12 08:29:06;;;;;;;4.28;1.98;;;15.50;99.90;;;;;;4974003;28;20220;-62
2022/05/12 08:31:33;;;;;;;4.35;1.92;;;15.50;99.90;;;;;;4977268;28;20609;-62
2022/05/12 08:34:00;;;;;;;4.75;1.90;;;15.50;99.90;;;;;;4969064;28;21025;-61
2022/05/12 08:36:28;;;;;;;3.83;1.60;;;15.70;99.90;;;;;;4979351;28;20210;-62
2022/05/12 08:38:55;;;;;;;4.03;1.98;;;15.70;99.90;;;;;;4989696;28;20195;-62
2022/05/12 08:41:31;;;;;;;4.72;1.80;;;15.70;99.90;;;;;;4988917;28;20256;-62
2022/05/12 08:44:01;;;;;;;3.13;1.70;;;15.70;99.90;;;;;;4979376;28;20231;-62
2022/05/12 08:46:41;;;;;;;5.25;2.47;;;15.60;99.90;;;;;;4977006;28;20733;-61
2022/05/12 08:49:20;;;;;;;4.88;1.63;;;15.60;99.90;;;;;;4968546;28;20278;-62
2022/05/12 08:51:49;;;;;;;6.55;2.10;;;15.60;99.90;;;;;;4979258;28;20207;-62
2022/05/12 08:54:21;;;;;;;4.55;1.83;;;15.70;99.90;;;;;;4993093;28;20298;-62
2022/05/12 08:56:49;;;;;;;6.50;1.85;;;15.70;99.90;;;;;;4974408;28;20226;-62
2022/05/12 08:59:17;;;;;;;3.97;1.50;;;15.60;99.90;;;;;;4995155;28;20198;-64
2022/05/12 09:02:09;;;;;;;4.80;1.60;;;15.80;99.90;;;;;;4961785;28;20212;-64
2022/05/12 09:17:25;;;;;;;3.90;1.40;;;16.00;99.90;;;;;;5020534;27;21156;-61
2022/05/12 09:19:52;;;;;;;2.85;1.10;;;16.10;99.90;;;;;;5013722;28;20839;-63
2022/05/12 09:22:25;;;;;;;2.15;1.40;;;16.10;99.90;;;;;;5020362;28;20227;-61
2022/05/12 09:24:53;;;;;;;4.00;1.35;;;16.00;99.90;;;;;;5031075;28;20224;-62
2022/05/12 09:27:28;;;;;;;4.90;1.35;;;16.00;99.90;;;;;;5040826;28;20192;-62
2022/05/12 09:29:55;;;;;;;2.58;1.58;;;16.00;99.90;;;;;;5042103;28;20892;-62
2022/05/12 09:32:26;;;;;;;2.97;1.30;;;16.10;99.90;;;;;;5021331;28;21287;-62
2022/05/12 09:35:20;;;;;;;3.75;1.20;;;16.20;99.90;;;;;;5035066;28;20204;-62
2022/05/12 09:37:48;;;;;;;3.72;1.45;;;16.50;99.90;;;;;;5033797;28;20195;-63
2022/05/12 09:58:33;;;;;;;1.25;1.00;;;16.80;99.90;;;;;;5082080;27;20203;-63
2022/05/12 10:01:25;;;;;;;2.13;1.00;;;16.90;99.90;;;;;;5085105;27;20222;-64
2022/05/12 10:18:34;;;;;;;3.15;1.17;;;16.60;99.90;;;;;;5069812;27;20573;-61
2022/05/12 10:21:09;;;;;;;3.50;1.27;;;16.80;99.90;;;;;;5019669;28;20202;-62
2022/05/12 10:23:45;;;;;;;2.35;1.23;;;17.10;99.90;;;;;;5055791;28;20246;-62
2022/05/12 10:26:17;;;;;;;1.77;1.20;;;17.30;99.90;;;;;;5050841;28;20203;-61
2022/05/12 10:28:50;;;;;;;3.60;1.38;;;17.20;99.90;;;;;;5068096;28;20860;-60
2022/05/12 10:31:26;;;;;;;2.35;1.30;;;17.10;99.90;;;;;;5053686;28;20215;-60
2022/05/12 10:34:17;;;;;;;3.08;1.48;;;16.90;99.90;;;;;;5072231;28;20212;-60
2022/05/12 10:36:51;;;;;;;3.25;1.30;;;16.90;99.90;;;;;;5067806;28;20227;-60
2022/05/12 10:39:27;;;;;;;1.80;1.23;;;16.90;99.90;;;;;;5068293;28;22765;-60
2022/05/12 10:42:13;;;;;;;2.45;1.08;;;17.10;99.90;;;;;;5071574;28;20213;-61
2022/05/12 10:45:02;;;;;;;1.58;1.10;;;17.20;99.90;;;;;;5065289;22;21039;-46
2022/05/12 10:47:44;;;;;;;1.98;1.20;;;17.40;99.90;;;;;;5046000;28;20224;-44
2022/05/12 10:50:20;;;;;;;2.53;1.08;;;17.60;99.90;;;;;;5013572;28;20410;-47
2022/05/12 10:52:55;;;;;;;7.03;1.30;;;17.70;99.90;;;;;;5034928;28;20414;-48
2022/05/12 10:55:28;;;;;;;2.72;1.52;;;17.70;99.90;;;;;;5036293;28;20206;-48
2022/05/12 10:58:08;;;;;;;7.40;1.30;;;17.90;99.90;;;;;;5046424;28;20630;-43
2022/05/12 11:00:51;;;;;;;2.47;0.82;;;17.90;99.90;;;;;;5054863;28;20446;-48
2022/05/12 11:03:23;;;;;;;6.47;1.27;;;18.00;99.90;;;;;;5063188;28;20211;-44
2022/05/12 11:05:55;;;;;;;4.68;1.33;;;18.00;99.90;;;;;;5049172;28;20275;-44
2022/05/12 11:08:26;;;;;;;2.72;1.20;;;18.00;99.90;;;;;;5055359;28;20220;-45
2022/05/12 11:10:56;;;;;;;1.67;1.00;;;17.80;99.90;;;;;;5053485;28;20502;-45
2022/05/12 11:13:27;;;;;;;5.38;1.70;;;17.70;99.90;;;;;;5047702;28;20215;-48
2022/05/12 11:16:00;;;;;;;1.15;1.02;;;17.70;99.90;;;;;;5050322;28;20230;-46
2022/05/12 11:18:34;;;;;;;4.50;1.10;;;17.80;99.90;;;;;;5046717;28;20281;-48
2022/05/12 11:21:11;;;;;;;3.05;1.15;;;17.70;99.90;;;;;;5049587;28;20445;-48
2022/05/12 11:23:50;;;;;;;2.17;0.98;;;17.60;99.90;;;;;;5046742;28;20220;-43
2022/05/12 11:26:33;;;;;;;3.65;1.08;;;17.50;99.90;;;;;;5035408;28;20719;-48
2022/05/12 11:31:56;;;;;;;4.57;1.33;;;17.40;99.90;;;;;;5050353;28;20216;-43
2022/05/12 11:34:25;;;;;;;1.35;0.95;;;17.20;99.90;;;;;;5040199;28;20499;-45
2022/05/12 11:36:55;;;;;;;2.80;1.42;;;17.30;99.90;;;;;;5049575;28;20620;-47
2022/05/12 11:39:31;;;;;;;2.45;1.02;;;17.50;99.90;;;;;;5032265;28;20232;-43
2022/05/12 11:42:22;;;;;;;3.97;1.27;;;17.70;99.90;;;;;;5039803;28;20219;-48
2022/05/12 11:45:01;;;;;;;1.95;0.93;;;18.00;99.90;;;;;;5030849;28;20577;-43
2022/05/12 11:48:05;;;;;;;3.25;2.00;;;18.10;99.90;;;;;;5039798;28;20304;-48
2022/05/12 11:51:01;;;;;;;2.47;1.38;;;18.20;99.90;;;;;;5046594;28;20212;-48
2022/05/12 11:53:46;;;;;;;1.63;1.10;;;18.20;99.90;;;;;;5052792;28;20287;-48
2022/05/12 11:56:14;;;;;;;4.68;1.10;;;18.10;99.90;;;;;;5054572;28;20287;-45
2022/05/12 11:58:44;;;;;;;1.80;1.17;;;18.00;99.90;;;;;;5043689;28;20529;-45
2022/05/12 12:01:12;;;;;;;2.05;1.00;;;17.90;99.90;;;;;;5059756;28;20205;-48
2022/05/12 12:03:57;;;;;;;3.95;1.33;;;17.80;99.90;;;;;;5016944;28;20411;-42
2022/05/12 12:06:49;;;;;;;2.42;1.08;;;17.80;99.90;;;;;;5038811;28;20268;-48
2022/05/12 12:09:52;;;;;;;1.75;0.95;;;17.80;99.90;;;;;;5047711;28;20224;-42
2022/05/12 12:12:54;;;;;;;2.83;1.10;;;17.80;99.90;;;;;;5059401;28;20284;-45
2022/05/12 12:16:04;;;;;;;4.55;1.50;;;17.70;99.90;;;;;;5053207;28;20306;-43
2022/05/12 12:18:59;;;;;;;6.43;1.50;;;17.60;99.90;;;;;;5010190;28;20236;-45
2022/05/12 12:21:46;;;;;;;1.63;0.90;;;18.00;99.90;;;;;;5037939;28;20402;-46
2022/05/12 12:24:27;;;;;;;3.78;1.30;;;18.20;99.90;;;;;;5018972;28;20216;-45
2022/05/12 12:27:15;;;;;;;1.10;1.10;;;18.50;99.90;;;;;;5048954;28;20189;-47
2022/05/12 12:29:43;;;;;;;4.40;1.08;;;18.40;99.90;;;;;;5047898;28;20330;-45
2022/05/12 12:32:27;;;;;;;6.05;1.40;;;18.40;99.90;;;;;;5044059;28;20209;-47
2022/05/12 12:34:56;;;;;;;4.15;1.40;;;18.10;99.90;;;;;;5034617;28;20387;-47
2022/05/12 12:37:43;;;;;;;3.30;1.10;;;18.00;99.90;;;;;;5021974;28;20670;-45
2022/05/12 12:40:43;;;;;;;4.55;1.00;;;18.00;99.90;;;;;;5042781;28;20443;-45
2022/05/12 12:43:20;;;;;;;8.02;1.30;;;17.90;99.90;;;;;;5065303;28;20511;-44
2022/05/12 12:45:50;;;;;;;3.50;1.30;;;18.00;99.90;;;;;;5047823;28;20451;-46
2022/05/12 12:48:21;;;;;;;5.97;1.63;;;18.00;99.90;;;;;;5063428;28;20221;-45
2022/05/12 12:50:52;;;;;;;3.65;1.45;;;18.20;99.90;;;;;;5021964;28;23245;-42
2022/05/12 12:56:31;;;;;;;3.83;1.63;;;18.40;99.90;;;;;;5043035;28;20452;-44
2022/05/12 12:59:01;;;;;;;2.58;1.90;;;18.60;99.90;;;;;;5051279;28;21618;-45
2022/05/12 13:01:37;;;;;;;4.25;1.50;;;18.40;99.90;;;;;;5043473;28;20210;-48
2022/05/12 13:04:09;;;;;;;4.63;1.40;;;18.50;99.90;;;;;;5026616;28;20219;-47
2022/05/12 13:06:38;;;;;;;3.20;1.42;;;18.50;99.90;;;;;;5026804;28;20215;-48
2022/05/12 13:09:07;;;;;;;2.35;1.08;;;18.60;99.90;;;;;;5034046;28;21315;-44
2022/05/12 13:11:36;;;;;;;1.88;1.23;;;18.70;99.90;;;;;;5041395;28;20220;-46
2022/05/12 13:14:04;;;;;;;8.38;1.85;;;18.60;99.90;;;;;;5034184;28;20224;-46
2022/05/12 13:16:36;;;;;;;3.17;1.52;;;18.30;99.90;;;;;;5043846;28;20497;-46
2022/05/12 13:19:04;;;;;;;3.97;1.40;;;18.30;99.90;;;;;;5030641;28;20398;-46
2022/05/12 13:24:54;;;;;;;2.17;1.52;;;18.00;99.90;;;;;;5037928;28;20183;-46
2022/05/12 13:27:24;;;;;;;5.72;1.45;;;18.10;99.90;;;;;;5051414;28;20661;-46
2022/05/12 13:29:52;;;;;;;2.72;1.42;;;18.30;99.90;;;;;;5028091;28;20220;-46
2022/05/12 13:32:43;;;;;;;2.88;1.17;;;18.30;99.90;;;;;;5046160;28;20304;-45
2022/05/12 13:35:16;;;;;;;4.80;1.13;;;18.10;99.90;;;;;;5033614;28;20566;-45
2022/05/12 13:37:54;;;;;;;2.08;1.17;;;18.20;99.90;;;;;;5041941;28;20299;-45
2022/05/12 13:40:49;;;;;;;5.60;1.40;;;18.20;99.90;;;;;;5022552;28;20200;-46
2022/05/12 13:43:25;;;;;;;5.75;1.48;;;18.30;99.90;;;;;;5037583;28;20211;-46
2022/05/12 13:46:07;;;;;;;3.05;1.10;;;18.80;99.90;;;;;;5035240;28;20555;-46
2022/05/12 13:48:38;;;;;;;2.60;1.17;;;18.70;99.90;;;;;;5044587;28;20535;-48
2022/05/12 13:51:04;;;;;;;9.90;1.50;;;18.70;99.90;;;;;;5037025;28;20225;-50
2022/05/12 13:53:34;;;;;;;2.33;1.17;;;18.70;99.90;;;;;;5027778;28;20545;-49
2022/05/12 13:56:14;;;;;;;2.33;1.15;;;18.60;99.90;;;;;;5040884;28;20209;-48
2022/05/12 13:58:47;;;;;;;4.53;1.30;;;18.40;99.90;;;;;;5038685;28;21007;-47
2022/05/12 14:01:27;;;;;;;6.07;1.70;;;18.40;99.90;;;;;;5034801;28;20489;-43
2022/05/12 14:04:14;;;;;;;2.45;1.35;;;18.50;99.90;;;;;;5050749;28;20644;-48
2022/05/12 14:06:43;;;;;;;7.30;1.33;;;18.70;99.90;;;;;;5037794;28;20674;-42
2022/05/12 14:09:15;;;;;;;1.80;1.08;;;18.80;99.90;;;;;;5028199;28;20231;-44
2022/05/12 14:11:42;;;;;;;8.95;1.58;;;18.80;99.90;;;;;;5034136;28;20216;-45
2022/05/12 14:19:42;;;;;;;3.60;0.90;;;18.90;99.90;;;;;;5039048;28;20208;-44